This is the latest recevied weather packets stored in our database for station/object W2CJS. If no packets are shown the sender has not sent any weather packets the latest 10 day(s).
| Time | Temp. | Humidity | Pressure | Rain* | Wind** | Luminosity | Snow |
|---|---|---|---|---|---|---|---|
| 1777995603 | 20.56° C | 55% | 1003.2 hPa | 0.25 mm | - | - | - |
| 1777993803 | 21.11° C | 54% | 1003.1 hPa | 0.25 mm | - | - | - |
| 1777991403 | 20° C | 58% | 1003.4 hPa | 0 mm | - | - | - |
| 1777987203 | 16.67° C | 69% | 1003.9 hPa | 0 mm | - | - | - |
| 1777985403 | 15° C | 74% | 1004 hPa | 0 mm | - | - | - |
| 1777983004 | 15.56° C | 70% | 1004 hPa | 0 mm | - | - | - |
| 1777977003 | 13.33° C | 77% | 1003.8 hPa | 0 mm | - | - | - |
| 1777976403 | 12.78° C | 78% | 1003.5 hPa | 0 mm | - | - | - |
| 1777975804 | 12.78° C | 79% | 1003.8 hPa | 0 mm | - | - | - |
| 1777975225 | 12.78° C | 78% | 1003.9 hPa | 0 mm | - | - | - |
| 1777974603 | 12.78° C | 80% | 1003.8 hPa | 0 mm | - | - | - |
| 1777974003 | 12.22° C | 81% | 1003.8 hPa | 0 mm | - | - | - |
| 1777972203 | 12.22° C | 82% | 1003.8 hPa | 0.51 mm | - | - | - |
| 1777968624 | 15.56° C | 62% | 1004.2 hPa | 0 mm | - | - | - |
| 1777966803 | 15° C | 58% | 1003.8 hPa | 0 mm | - | - | - |
| 1777963803 | 14.44° C | 58% | 1003.6 hPa | 0 mm | - | - | - |
| 1777960203 | 15° C | 55% | 1003.8 hPa | 0 mm | - | - | - |
| 1777956603 | 14.44° C | 59% | 1004.1 hPa | 0 mm | - | - | - |
| 1777956003 | 10° C | 76% | 1004.2 hPa | 0 mm | - | - | - |
| 1777953003 | 7.78° C | 84% | 1004.1 hPa | 0 mm | - | - | - |
| 1777951803 | 7.78° C | 83% | 1004.2 hPa | 0 mm | - | - | - |
| 1777948803 | 8.33° C | 81% | 1004.4 hPa | 0 mm | - | - | - |
| 1777944003 | 11.11° C | 74% | 1004.8 hPa | 0 mm | - | - | - |
| 1777942803 | 11.67° C | 75% | 1004.6 hPa | 0 mm | - | - | - |
| 1777935003 | 18.33° C | 44% | 1003.9 hPa | 0 mm | - | - | - |
* Rain latest hour (hover to see other rain measurements)
** Current wind speed in m/s (hover to see current wind gust speed)